la Seu d'Urgell, Spain
Current Conditions -  °F | °C
As of 1:30 PM on Tuesday 21 Oct 2014 (Local Time) from LELL Reporting Station
Clear Clear  
Wind Chill: 81°   Ceiling: Unl
Heat Index: 81°   Visibility: 6mi
Dew Point: 57°   Wind: 2mph
Humidity: 45%   Direction: NA
Pressure: 30.09"   Gusts: NA
Location:  42.36°N, 1.46°E
Report Text: LELL 211130Z VRB02KT CAVOK 27/14 Q1019
Loading
Personal Weather Stations






























Interactive Weather Map
Tropical Storm Tracking
New forecast layout! Learn more

10-Day Weather Forecast

Advertisements
Track Severe Weather on mobile